sensor_id;sensor_type;location;lat;lon;timestamp;P1;durP1;ratioP1;P2;durP2;ratioP2
41629;SDS011;27322;49.488;8.480;2022-10-19T00:01:27;26.45;;;14.70;;
41629;SDS011;27322;49.488;8.480;2022-10-19T00:03:47;27.75;;;15.40;;
41629;SDS011;27322;49.488;8.480;2022-10-19T00:06:17;25.80;;;15.52;;
41629;SDS011;27322;49.488;8.480;2022-10-19T00:08:50;29.90;;;16.05;;
41629;SDS011;27322;49.488;8.480;2022-10-19T00:11:19;34.05;;;18.10;;
41629;SDS011;27322;49.488;8.480;2022-10-19T00:13:45;34.47;;;17.42;;
41629;SDS011;27322;49.488;8.480;2022-10-19T00:16:11;32.42;;;18.08;;
41629;SDS011;27322;49.488;8.480;2022-10-19T00:18:39;38.45;;;18.15;;
41629;SDS011;27322;49.488;8.480;2022-10-19T00:21:08;30.38;;;16.38;;
41629;SDS011;27322;49.488;8.480;2022-10-19T00:23:34;34.13;;;17.83;;
41629;SDS011;27322;49.488;8.480;2022-10-19T00:26:00;36.00;;;18.30;;
41629;SDS011;27322;49.488;8.480;2022-10-19T00:28:26;35.13;;;17.85;;
41629;SDS011;27322;49.488;8.480;2022-10-19T00:30:52;38.88;;;18.10;;
41629;SDS011;27322;49.488;8.480;2022-10-19T00:33:18;28.45;;;15.65;;
41629;SDS011;27322;49.488;8.480;2022-10-19T00:35:50;28.25;;;15.25;;
41629;SDS011;27322;49.488;8.480;2022-10-19T00:38:16;30.25;;;17.30;;
41629;SDS011;27322;49.488;8.480;2022-10-19T00:40:43;30.52;;;17.17;;
41629;SDS011;27322;49.488;8.480;2022-10-19T00:43:16;28.33;;;16.13;;
41629;SDS011;27322;49.488;8.480;2022-10-19T00:45:44;26.08;;;16.05;;
41629;SDS011;27322;49.488;8.480;2022-10-19T00:48:11;28.00;;;16.02;;
41629;SDS011;27322;49.488;8.480;2022-10-19T00:50:41;28.40;;;15.88;;
41629;SDS011;27322;49.488;8.480;2022-10-19T00:53:07;22.88;;;14.82;;
41629;SDS011;27322;49.488;8.480;2022-10-19T00:55:33;27.33;;;15.82;;
41629;SDS011;27322;49.488;8.480;2022-10-19T00:57:59;28.33;;;17.13;;
41629;SDS011;27322;49.488;8.480;2022-10-19T01:00:27;25.95;;;16.17;;
41629;SDS011;27322;49.488;8.480;2022-10-19T01:02:53;28.35;;;16.20;;
41629;SDS011;27322;49.488;8.480;2022-10-19T01:05:19;26.58;;;15.60;;
41629;SDS011;27322;49.488;8.480;2022-10-19T01:07:47;26.75;;;15.70;;
41629;SDS011;27322;49.488;8.480;2022-10-19T01:10:16;24.67;;;14.85;;
41629;SDS011;27322;49.488;8.480;2022-10-19T01:15:47;24.55;;;15.07;;
41629;SDS011;27322;49.488;8.480;2022-10-19T01:18:41;21.55;;;13.75;;
41629;SDS011;27322;49.488;8.480;2022-10-19T01:24:07;19.30;;;12.45;;
41629;SDS011;27322;49.488;8.480;2022-10-19T01:35:09;22.20;;;13.63;;
41629;SDS011;27322;49.488;8.480;2022-10-19T01:37:47;24.10;;;13.95;;
41629;SDS011;27322;49.488;8.480;2022-10-19T01:40:37;23.08;;;12.07;;
41629;SDS011;27322;49.488;8.480;2022-10-19T01:46:20;17.33;;;10.30;;
41629;SDS011;27322;49.488;8.480;2022-10-19T01:48:57;19.67;;;10.77;;
41629;SDS011;27322;49.488;8.480;2022-10-19T01:51:31;20.95;;;11.50;;
41629;SDS011;27322;49.488;8.480;2022-10-19T01:54:01;22.65;;;12.35;;
41629;SDS011;27322;49.488;8.480;2022-10-19T01:56:30;18.50;;;11.73;;
41629;SDS011;27322;49.488;8.480;2022-10-19T01:59:00;19.25;;;11.93;;
41629;SDS011;27322;49.488;8.480;2022-10-19T02:01:30;19.73;;;11.20;;
41629;SDS011;27322;49.488;8.480;2022-10-19T02:03:59;16.90;;;10.50;;
41629;SDS011;27322;49.488;8.480;2022-10-19T02:06:29;18.05;;;10.40;;
41629;SDS011;27322;49.488;8.480;2022-10-19T02:08:55;17.77;;;10.75;;
41629;SDS011;27322;49.488;8.480;2022-10-19T02:11:20;18.00;;;10.18;;
41629;SDS011;27322;49.488;8.480;2022-10-19T02:13:49;19.63;;;10.35;;
41629;SDS011;27322;49.488;8.480;2022-10-19T02:16:54;19.27;;;10.85;;
41629;SDS011;27322;49.488;8.480;2022-10-19T02:19:13;18.50;;;10.65;;
41629;SDS011;27322;49.488;8.480;2022-10-19T02:21:49;23.17;;;12.73;;
41629;SDS011;27322;49.488;8.480;2022-10-19T02:24:26;25.73;;;14.00;;
41629;SDS011;27322;49.488;8.480;2022-10-19T02:32:52;25.20;;;13.20;;
41629;SDS011;27322;49.488;8.480;2022-10-19T02:35:18;23.60;;;13.50;;
41629;SDS011;27322;49.488;8.480;2022-10-19T02:37:43;23.13;;;13.90;;
41629;SDS011;27322;49.488;8.480;2022-10-19T02:40:10;22.83;;;13.05;;
41629;SDS011;27322;49.488;8.480;2022-10-19T02:42:59;23.65;;;12.57;;
41629;SDS011;27322;49.488;8.480;2022-10-19T02:45:34;20.58;;;11.25;;
41629;SDS011;27322;49.488;8.480;2022-10-19T02:48:16;20.95;;;11.00;;
41629;SDS011;27322;49.488;8.480;2022-10-19T02:54:16;16.90;;;10.68;;
41629;SDS011;27322;49.488;8.480;2022-10-19T02:56:42;28.90;;;12.10;;
41629;SDS011;27322;49.488;8.480;2022-10-19T02:59:25;19.98;;;11.82;;
41629;SDS011;27322;49.488;8.480;2022-10-19T03:02:05;22.75;;;12.05;;
41629;SDS011;27322;49.488;8.480;2022-10-19T03:05:02;22.27;;;11.68;;
41629;SDS011;27322;49.488;8.480;2022-10-19T03:11:05;21.55;;;11.85;;
41629;SDS011;27322;49.488;8.480;2022-10-19T03:16:24;22.95;;;12.45;;
41629;SDS011;27322;49.488;8.480;2022-10-19T03:18:49;22.27;;;11.23;;
41629;SDS011;27322;49.488;8.480;2022-10-19T03:21:16;22.75;;;12.25;;
41629;SDS011;27322;49.488;8.480;2022-10-19T03:23:42;20.98;;;11.77;;
41629;SDS011;27322;49.488;8.480;2022-10-19T03:26:10;21.63;;;11.60;;
41629;SDS011;27322;49.488;8.480;2022-10-19T03:29:04;22.60;;;11.82;;
41629;SDS011;27322;49.488;8.480;2022-10-19T03:32:04;22.85;;;11.75;;
41629;SDS011;27322;49.488;8.480;2022-10-19T03:34:30;20.88;;;11.07;;
41629;SDS011;27322;49.488;8.480;2022-10-19T03:37:12;20.17;;;11.30;;
41629;SDS011;27322;49.488;8.480;2022-10-19T03:40:10;20.58;;;11.68;;
41629;SDS011;27322;49.488;8.480;2022-10-19T03:42:53;23.55;;;12.30;;
41629;SDS011;27322;49.488;8.480;2022-10-19T03:45:41;25.38;;;13.50;;
41629;SDS011;27322;49.488;8.480;2022-10-19T03:48:42;26.85;;;14.13;;
41629;SDS011;27322;49.488;8.480;2022-10-19T03:51:25;32.25;;;15.68;;
41629;SDS011;27322;49.488;8.480;2022-10-19T03:54:04;27.92;;;14.43;;
41629;SDS011;27322;49.488;8.480;2022-10-19T03:56:32;29.58;;;15.57;;
41629;SDS011;27322;49.488;8.480;2022-10-19T03:58:59;27.70;;;14.20;;
41629;SDS011;27322;49.488;8.480;2022-10-19T04:01:27;29.70;;;14.70;;
41629;SDS011;27322;49.488;8.480;2022-10-19T04:04:04;26.05;;;13.63;;
41629;SDS011;27322;49.488;8.480;2022-10-19T04:06:42;28.17;;;13.98;;
41629;SDS011;27322;49.488;8.480;2022-10-19T04:09:23;26.67;;;14.27;;
41629;SDS011;27322;49.488;8.480;2022-10-19T04:11:49;30.00;;;14.95;;
41629;SDS011;27322;49.488;8.480;2022-10-19T04:14:17;30.40;;;15.35;;
41629;SDS011;27322;49.488;8.480;2022-10-19T04:16:43;27.17;;;14.25;;
41629;SDS011;27322;49.488;8.480;2022-10-19T04:19:14;25.08;;;13.68;;
41629;SDS011;27322;49.488;8.480;2022-10-19T04:22:00;30.55;;;14.77;;
41629;SDS011;27322;49.488;8.480;2022-10-19T04:27:37;28.50;;;14.15;;
41629;SDS011;27322;49.488;8.480;2022-10-19T04:30:03;25.85;;;14.25;;
41629;SDS011;27322;49.488;8.480;2022-10-19T04:32:31;27.70;;;13.65;;
41629;SDS011;27322;49.488;8.480;2022-10-19T04:38:17;21.50;;;12.95;;
41629;SDS011;27322;49.488;8.480;2022-10-19T04:41:44;21.23;;;12.27;;
41629;SDS011;27322;49.488;8.480;2022-10-19T04:59:29;20.85;;;12.05;;
41629;SDS011;27322;49.488;8.480;2022-10-19T05:02:03;21.95;;;11.82;;
41629;SDS011;27322;49.488;8.480;2022-10-19T05:08:15;17.30;;;10.85;;
41629;SDS011;27322;49.488;8.480;2022-10-19T05:10:40;20.02;;;11.23;;
41629;SDS011;27322;49.488;8.480;2022-10-19T05:13:08;18.50;;;11.38;;
41629;SDS011;27322;49.488;8.480;2022-10-19T05:19:11;19.25;;;11.98;;
41629;SDS011;27322;49.488;8.480;2022-10-19T05:25:25;22.27;;;11.25;;
41629;SDS011;27322;49.488;8.480;2022-10-19T05:27:56;24.08;;;12.70;;
41629;SDS011;27322;49.488;8.480;2022-10-19T05:30:25;22.05;;;12.45;;
41629;SDS011;27322;49.488;8.480;2022-10-19T05:39:25;25.58;;;13.20;;
41629;SDS011;27322;49.488;8.480;2022-10-19T05:41:56;24.13;;;12.95;;
41629;SDS011;27322;49.488;8.480;2022-10-19T05:44:30;27.02;;;12.93;;
41629;SDS011;27322;49.488;8.480;2022-10-19T05:47:05;23.52;;;12.77;;
41629;SDS011;27322;49.488;8.480;2022-10-19T05:49:38;24.25;;;13.10;;
41629;SDS011;27322;49.488;8.480;2022-10-19T05:55:24;24.30;;;12.73;;
41629;SDS011;27322;49.488;8.480;2022-10-19T05:58:23;24.48;;;13.70;;
41629;SDS011;27322;49.488;8.480;2022-10-19T06:03:53;26.63;;;13.18;;
41629;SDS011;27322;49.488;8.480;2022-10-19T06:06:22;24.10;;;13.05;;
41629;SDS011;27322;49.488;8.480;2022-10-19T06:08:56;26.70;;;14.10;;
41629;SDS011;27322;49.488;8.480;2022-10-19T06:11:38;26.38;;;13.77;;
41629;SDS011;27322;49.488;8.480;2022-10-19T06:14:06;27.55;;;13.35;;
41629;SDS011;27322;49.488;8.480;2022-10-19T06:19:57;27.02;;;14.48;;
41629;SDS011;27322;49.488;8.480;2022-10-19T06:22:30;27.48;;;14.75;;
41629;SDS011;27322;49.488;8.480;2022-10-19T06:25:42;24.77;;;13.70;;
41629;SDS011;27322;49.488;8.480;2022-10-19T06:28:40;27.45;;;14.40;;
41629;SDS011;27322;49.488;8.480;2022-10-19T06:31:37;27.17;;;14.00;;
41629;SDS011;27322;49.488;8.480;2022-10-19T06:34:06;25.52;;;14.32;;
41629;SDS011;27322;49.488;8.480;2022-10-19T06:36:54;28.20;;;14.30;;
41629;SDS011;27322;49.488;8.480;2022-10-19T06:39:20;24.58;;;13.40;;
41629;SDS011;27322;49.488;8.480;2022-10-19T06:45:08;22.02;;;13.05;;
41629;SDS011;27322;49.488;8.480;2022-10-19T06:51:14;21.83;;;12.90;;
41629;SDS011;27322;49.488;8.480;2022-10-19T07:04:47;28.27;;;14.95;;
41629;SDS011;27322;49.488;8.480;2022-10-19T07:07:13;24.00;;;14.60;;
41629;SDS011;27322;49.488;8.480;2022-10-19T07:13:08;23.77;;;14.13;;
41629;SDS011;27322;49.488;8.480;2022-10-19T07:16:50;26.10;;;14.65;;
41629;SDS011;27322;49.488;8.480;2022-10-19T07:22:46;24.30;;;14.32;;
41629;SDS011;27322;49.488;8.480;2022-10-19T07:25:46;25.30;;;14.82;;
41629;SDS011;27322;49.488;8.480;2022-10-19T07:28:36;24.10;;;14.63;;
41629;SDS011;27322;49.488;8.480;2022-10-19T07:31:29;24.05;;;13.60;;
41629;SDS011;27322;49.488;8.480;2022-10-19T07:34:03;22.05;;;13.55;;
41629;SDS011;27322;49.488;8.480;2022-10-19T07:39:59;21.73;;;13.25;;
41629;SDS011;27322;49.488;8.480;2022-10-19T07:42:54;26.02;;;13.50;;
41629;SDS011;27322;49.488;8.480;2022-10-19T07:45:56;26.83;;;14.13;;
41629;SDS011;27322;49.488;8.480;2022-10-19T07:51:49;25.80;;;15.32;;
41629;SDS011;27322;49.488;8.480;2022-10-19T07:54:20;25.70;;;15.23;;
41629;SDS011;27322;49.488;8.480;2022-10-19T08:00:43;27.27;;;16.10;;
41629;SDS011;27322;49.488;8.480;2022-10-19T08:03:31;32.45;;;18.10;;
41629;SDS011;27322;49.488;8.480;2022-10-19T08:06:49;30.98;;;17.67;;
41629;SDS011;27322;49.488;8.480;2022-10-19T08:09:58;31.67;;;17.42;;
41629;SDS011;27322;49.488;8.480;2022-10-19T08:23:17;31.63;;;17.67;;
41629;SDS011;27322;49.488;8.480;2022-10-19T08:29:47;27.88;;;17.67;;
41629;SDS011;27322;49.488;8.480;2022-10-19T08:39:23;18.23;;;12.02;;
41629;SDS011;27322;49.488;8.480;2022-10-19T08:42:26;16.75;;;11.40;;
41629;SDS011;27322;49.488;8.480;2022-10-19T08:51:34;14.30;;;10.00;;
41629;SDS011;27322;49.488;8.480;2022-10-19T09:01:28;14.65;;;10.02;;
41629;SDS011;27322;49.488;8.480;2022-10-19T09:07:28;11.95;;;8.82;;
41629;SDS011;27322;49.488;8.480;2022-10-19T09:12:47;14.93;;;9.75;;
41629;SDS011;27322;49.488;8.480;2022-10-19T09:15:33;13.52;;;9.00;;
41629;SDS011;27322;49.488;8.480;2022-10-19T09:18:13;13.88;;;9.55;;
41629;SDS011;27322;49.488;8.480;2022-10-19T09:20:48;14.63;;;10.57;;
41629;SDS011;27322;49.488;8.480;2022-10-19T09:26:00;12.68;;;8.95;;
41629;SDS011;27322;49.488;8.480;2022-10-19T09:28:40;12.40;;;8.50;;
41629;SDS011;27322;49.488;8.480;2022-10-19T09:31:25;12.18;;;9.02;;
41629;SDS011;27322;49.488;8.480;2022-10-19T09:33:58;17.25;;;12.35;;
41629;SDS011;27322;49.488;8.480;2022-10-19T09:39:47;24.17;;;14.48;;
41629;SDS011;27322;49.488;8.480;2022-10-19T09:42:46;19.73;;;14.70;;
41629;SDS011;27322;49.488;8.480;2022-10-19T09:45:32;20.50;;;15.13;;
41629;SDS011;27322;49.488;8.480;2022-10-19T09:51:37;19.52;;;14.13;;
41629;SDS011;27322;49.488;8.480;2022-10-19T09:59:00;18.63;;;13.10;;
41629;SDS011;27322;49.488;8.480;2022-10-19T10:02:23;18.60;;;13.23;;
41629;SDS011;27322;49.488;8.480;2022-10-19T10:05:04;16.70;;;12.15;;
41629;SDS011;27322;49.488;8.480;2022-10-19T10:08:12;17.65;;;12.80;;
41629;SDS011;27322;49.488;8.480;2022-10-19T10:14:15;10.80;;;8.07;;
41629;SDS011;27322;49.488;8.480;2022-10-19T10:17:21;11.95;;;7.80;;
41629;SDS011;27322;49.488;8.480;2022-10-19T10:20:15;11.70;;;7.57;;
41629;SDS011;27322;49.488;8.480;2022-10-19T10:23:04;9.65;;;7.30;;
41629;SDS011;27322;49.488;8.480;2022-10-19T10:25:47;10.00;;;7.15;;
41629;SDS011;27322;49.488;8.480;2022-10-19T10:28:20;10.07;;;7.90;;
41629;SDS011;27322;49.488;8.480;2022-10-19T10:31:13;9.82;;;7.50;;
41629;SDS011;27322;49.488;8.480;2022-10-19T10:33:43;11.27;;;7.30;;
41629;SDS011;27322;49.488;8.480;2022-10-19T10:36:22;9.25;;;6.80;;
41629;SDS011;27322;49.488;8.480;2022-10-19T10:38:54;10.80;;;7.13;;
41629;SDS011;27322;49.488;8.480;2022-10-19T10:41:28;10.35;;;7.10;;
41629;SDS011;27322;49.488;8.480;2022-10-19T10:44:01;11.00;;;7.68;;
41629;SDS011;27322;49.488;8.480;2022-10-19T10:46:49;10.43;;;6.88;;
41629;SDS011;27322;49.488;8.480;2022-10-19T10:49:27;12.23;;;6.85;;
41629;SDS011;27322;49.488;8.480;2022-10-19T10:51:59;10.88;;;7.00;;
41629;SDS011;27322;49.488;8.480;2022-10-19T10:54:30;9.75;;;6.47;;
41629;SDS011;27322;49.488;8.480;2022-10-19T10:59:58;10.55;;;6.45;;
41629;SDS011;27322;49.488;8.480;2022-10-19T11:05:24;9.57;;;5.60;;
41629;SDS011;27322;49.488;8.480;2022-10-19T11:07:52;7.28;;;5.15;;
41629;SDS011;27322;49.488;8.480;2022-10-19T11:10:26;7.55;;;4.82;;
41629;SDS011;27322;49.488;8.480;2022-10-19T11:15:36;6.85;;;3.85;;
41629;SDS011;27322;49.488;8.480;2022-10-19T11:18:35;5.68;;;3.80;;
41629;SDS011;27322;49.488;8.480;2022-10-19T11:32:26;5.97;;;3.63;;
41629;SDS011;27322;49.488;8.480;2022-10-19T11:38:26;6.05;;;3.70;;
41629;SDS011;27322;49.488;8.480;2022-10-19T11:54:57;4.50;;;3.10;;
41629;SDS011;27322;49.488;8.480;2022-10-19T12:00:14;4.65;;;3.20;;
41629;SDS011;27322;49.488;8.480;2022-10-19T12:08:38;4.53;;;2.95;;
41629;SDS011;27322;49.488;8.480;2022-10-19T12:14:08;3.72;;;2.22;;
41629;SDS011;27322;49.488;8.480;2022-10-19T12:16:49;4.07;;;2.60;;
41629;SDS011;27322;49.488;8.480;2022-10-19T12:19:23;4.15;;;2.42;;
41629;SDS011;27322;49.488;8.480;2022-10-19T12:22:02;4.55;;;2.65;;
41629;SDS011;27322;49.488;8.480;2022-10-19T12:24:31;5.25;;;2.53;;
41629;SDS011;27322;49.488;8.480;2022-10-19T12:26:58;3.92;;;2.65;;
41629;SDS011;27322;49.488;8.480;2022-10-19T12:29:25;3.80;;;2.53;;
41629;SDS011;27322;49.488;8.480;2022-10-19T12:31:53;4.57;;;2.67;;
41629;SDS011;27322;49.488;8.480;2022-10-19T12:34:26;3.47;;;2.08;;
41629;SDS011;27322;49.488;8.480;2022-10-19T12:44:50;4.35;;;2.75;;
41629;SDS011;27322;49.488;8.480;2022-10-19T12:47:29;5.03;;;2.20;;
41629;SDS011;27322;49.488;8.480;2022-10-19T12:49:55;4.32;;;2.30;;
41629;SDS011;27322;49.488;8.480;2022-10-19T12:52:34;5.45;;;2.83;;
41629;SDS011;27322;49.488;8.480;2022-10-19T12:55:30;5.07;;;2.30;;
41629;SDS011;27322;49.488;8.480;2022-10-19T12:58:05;5.00;;;2.65;;
41629;SDS011;27322;49.488;8.480;2022-10-19T13:00:55;4.10;;;2.65;;
41629;SDS011;27322;49.488;8.480;2022-10-19T13:03:23;4.10;;;2.42;;
41629;SDS011;27322;49.488;8.480;2022-10-19T13:06:47;4.15;;;2.55;;
41629;SDS011;27322;49.488;8.480;2022-10-19T13:09:01;4.10;;;2.72;;
41629;SDS011;27322;49.488;8.480;2022-10-19T13:11:29;4.45;;;2.42;;
41629;SDS011;27322;49.488;8.480;2022-10-19T13:13:56;3.65;;;2.45;;
41629;SDS011;27322;49.488;8.480;2022-10-19T13:19:01;4.10;;;2.45;;
41629;SDS011;27322;49.488;8.480;2022-10-19T13:21:45;4.78;;;2.70;;
41629;SDS011;27322;49.488;8.480;2022-10-19T13:40:33;3.97;;;2.10;;
41629;SDS011;27322;49.488;8.480;2022-10-19T13:43:01;5.13;;;1.88;;
41629;SDS011;27322;49.488;8.480;2022-10-19T13:45:27;3.63;;;1.80;;
41629;SDS011;27322;49.488;8.480;2022-10-19T13:47:58;3.15;;;1.88;;
41629;SDS011;27322;49.488;8.480;2022-10-19T14:01:37;3.10;;;1.90;;
41629;SDS011;27322;49.488;8.480;2022-10-19T14:10:13;4.25;;;1.98;;
41629;SDS011;27322;49.488;8.480;2022-10-19T14:12:42;6.28;;;2.05;;
41629;SDS011;27322;49.488;8.480;2022-10-19T14:15:20;2.72;;;1.65;;
41629;SDS011;27322;49.488;8.480;2022-10-19T14:17:52;4.72;;;1.90;;
41629;SDS011;27322;49.488;8.480;2022-10-19T14:20:34;2.90;;;1.30;;
41629;SDS011;27322;49.488;8.480;2022-10-19T14:23:17;2.90;;;1.70;;
41629;SDS011;27322;49.488;8.480;2022-10-19T14:25:56;3.10;;;1.60;;
41629;SDS011;27322;49.488;8.480;2022-10-19T14:28:25;3.75;;;1.50;;
41629;SDS011;27322;49.488;8.480;2022-10-19T14:30:56;2.97;;;1.60;;
41629;SDS011;27322;49.488;8.480;2022-10-19T14:33:22;4.15;;;1.50;;
41629;SDS011;27322;49.488;8.480;2022-10-19T14:35:49;2.90;;;1.75;;
41629;SDS011;27322;49.488;8.480;2022-10-19T14:38:39;2.97;;;1.60;;
41629;SDS011;27322;49.488;8.480;2022-10-19T14:41:04;2.65;;;1.50;;
41629;SDS011;27322;49.488;8.480;2022-10-19T14:43:41;3.70;;;1.80;;
41629;SDS011;27322;49.488;8.480;2022-10-19T14:48:33;3.28;;;1.90;;
41629;SDS011;27322;49.488;8.480;2022-10-19T14:50:59;2.80;;;1.55;;
41629;SDS011;27322;49.488;8.480;2022-10-19T14:56:17;3.63;;;2.00;;
41629;SDS011;27322;49.488;8.480;2022-10-19T15:01:20;4.07;;;2.55;;
41629;SDS011;27322;49.488;8.480;2022-10-19T15:03:46;5.25;;;2.40;;
41629;SDS011;27322;49.488;8.480;2022-10-19T15:06:32;3.78;;;2.20;;
41629;SDS011;27322;49.488;8.480;2022-10-19T15:09:06;3.28;;;2.17;;
41629;SDS011;27322;49.488;8.480;2022-10-19T15:11:39;3.83;;;2.10;;
41629;SDS011;27322;49.488;8.480;2022-10-19T15:14:14;5.18;;;2.35;;
41629;SDS011;27322;49.488;8.480;2022-10-19T15:19:17;4.32;;;2.50;;
41629;SDS011;27322;49.488;8.480;2022-10-19T15:24:37;4.80;;;2.70;;
41629;SDS011;27322;49.488;8.480;2022-10-19T15:27:46;4.80;;;2.50;;
41629;SDS011;27322;49.488;8.480;2022-10-19T15:40:46;5.90;;;3.38;;
41629;SDS011;27322;49.488;8.480;2022-10-19T15:47:18;7.70;;;3.55;;
41629;SDS011;27322;49.488;8.480;2022-10-19T15:50:04;6.47;;;3.65;;
41629;SDS011;27322;49.488;8.480;2022-10-19T15:53:13;6.35;;;3.72;;
41629;SDS011;27322;49.488;8.480;2022-10-19T15:55:48;9.98;;;8.15;;
41629;SDS011;27322;49.488;8.480;2022-10-19T15:58:23;7.05;;;3.90;;
41629;SDS011;27322;49.488;8.480;2022-10-19T16:01:07;6.90;;;3.90;;
41629;SDS011;27322;49.488;8.480;2022-10-19T16:04:24;6.07;;;3.83;;
41629;SDS011;27322;49.488;8.480;2022-10-19T16:07:04;7.25;;;4.05;;
41629;SDS011;27322;49.488;8.480;2022-10-19T16:10:18;6.93;;;4.05;;
41629;SDS011;27322;49.488;8.480;2022-10-19T16:12:59;6.70;;;3.92;;
41629;SDS011;27322;49.488;8.480;2022-10-19T16:15:46;7.57;;;4.63;;
41629;SDS011;27322;49.488;8.480;2022-10-19T16:19:04;6.32;;;3.70;;
41629;SDS011;27322;49.488;8.480;2022-10-19T16:21:46;6.25;;;4.10;;
41629;SDS011;27322;49.488;8.480;2022-10-19T16:24:15;7.32;;;3.95;;
41629;SDS011;27322;49.488;8.480;2022-10-19T16:26:44;6.32;;;4.03;;
41629;SDS011;27322;49.488;8.480;2022-10-19T16:29:12;6.30;;;3.85;;
41629;SDS011;27322;49.488;8.480;2022-10-19T16:31:37;7.18;;;3.85;;
41629;SDS011;27322;49.488;8.480;2022-10-19T16:34:03;8.68;;;4.00;;
41629;SDS011;27322;49.488;8.480;2022-10-19T16:36:29;7.18;;;3.80;;
41629;SDS011;27322;49.488;8.480;2022-10-19T16:38:54;6.65;;;3.80;;
41629;SDS011;27322;49.488;8.480;2022-10-19T16:41:20;6.18;;;3.70;;
41629;SDS011;27322;49.488;8.480;2022-10-19T16:43:52;7.20;;;3.90;;
41629;SDS011;27322;49.488;8.480;2022-10-19T16:46:19;9.13;;;4.03;;
41629;SDS011;27322;49.488;8.480;2022-10-19T16:48:45;6.97;;;4.25;;
41629;SDS011;27322;49.488;8.480;2022-10-19T16:51:16;5.82;;;3.65;;
41629;SDS011;27322;49.488;8.480;2022-10-19T16:53:43;6.80;;;4.00;;
41629;SDS011;27322;49.488;8.480;2022-10-19T16:56:09;6.20;;;3.90;;
41629;SDS011;27322;49.488;8.480;2022-10-19T16:58:36;6.35;;;3.90;;
41629;SDS011;27322;49.488;8.480;2022-10-19T17:01:14;6.55;;;4.00;;
41629;SDS011;27322;49.488;8.480;2022-10-19T17:06:11;6.63;;;4.10;;
41629;SDS011;27322;49.488;8.480;2022-10-19T17:08:37;7.60;;;4.07;;
41629;SDS011;27322;49.488;8.480;2022-10-19T17:13:36;5.80;;;3.90;;
41629;SDS011;27322;49.488;8.480;2022-10-19T17:16:02;5.63;;;3.88;;
41629;SDS011;27322;49.488;8.480;2022-10-19T17:18:29;7.38;;;4.00;;
41629;SDS011;27322;49.488;8.480;2022-10-19T17:21:00;6.35;;;3.95;;
41629;SDS011;27322;49.488;8.480;2022-10-19T17:23:34;6.50;;;3.65;;
41629;SDS011;27322;49.488;8.480;2022-10-19T17:33:58;6.05;;;4.15;;
41629;SDS011;27322;49.488;8.480;2022-10-19T17:37:00;6.32;;;4.10;;
41629;SDS011;27322;49.488;8.480;2022-10-19T17:39:33;6.85;;;4.35;;
41629;SDS011;27322;49.488;8.480;2022-10-19T17:45:18;6.55;;;4.10;;
41629;SDS011;27322;49.488;8.480;2022-10-19T17:47:52;6.20;;;4.53;;
41629;SDS011;27322;49.488;8.480;2022-10-19T17:53:41;7.30;;;4.75;;
41629;SDS011;27322;49.488;8.480;2022-10-19T17:57:02;7.25;;;4.88;;
41629;SDS011;27322;49.488;8.480;2022-10-19T18:07:15;7.72;;;5.32;;
41629;SDS011;27322;49.488;8.480;2022-10-19T18:10:17;8.45;;;5.90;;
41629;SDS011;27322;49.488;8.480;2022-10-19T18:16:38;9.05;;;5.57;;
41629;SDS011;27322;49.488;8.480;2022-10-19T18:19:16;9.70;;;5.93;;
41629;SDS011;27322;49.488;8.480;2022-10-19T18:22:04;8.35;;;6.28;;
41629;SDS011;27322;49.488;8.480;2022-10-19T18:24:51;9.07;;;6.20;;
41629;SDS011;27322;49.488;8.480;2022-10-19T18:31:33;8.93;;;6.28;;
41629;SDS011;27322;49.488;8.480;2022-10-19T18:41:01;9.43;;;5.85;;
41629;SDS011;27322;49.488;8.480;2022-10-19T18:43:28;8.43;;;6.10;;
41629;SDS011;27322;49.488;8.480;2022-10-19T19:14:23;8.38;;;6.07;;
41629;SDS011;27322;49.488;8.480;2022-10-19T19:19:50;8.88;;;5.97;;
41629;SDS011;27322;49.488;8.480;2022-10-19T19:23:08;9.20;;;6.50;;
41629;SDS011;27322;49.488;8.480;2022-10-19T19:25:33;9.38;;;6.00;;
41629;SDS011;27322;49.488;8.480;2022-10-19T19:28:18;8.55;;;6.20;;
41629;SDS011;27322;49.488;8.480;2022-10-19T19:30:44;8.13;;;5.97;;
41629;SDS011;27322;49.488;8.480;2022-10-19T19:33:39;11.80;;;7.30;;
41629;SDS011;27322;49.488;8.480;2022-10-19T19:36:36;9.02;;;5.85;;
41629;SDS011;27322;49.488;8.480;2022-10-19T19:39:27;10.40;;;6.45;;
41629;SDS011;27322;49.488;8.480;2022-10-19T19:41:56;9.50;;;6.57;;
41629;SDS011;27322;49.488;8.480;2022-10-19T19:44:34;10.25;;;7.30;;
41629;SDS011;27322;49.488;8.480;2022-10-19T19:50:38;9.80;;;7.28;;
41629;SDS011;27322;49.488;8.480;2022-10-19T19:53:16;11.80;;;7.53;;
41629;SDS011;27322;49.488;8.480;2022-10-19T19:55:44;10.70;;;7.22;;
41629;SDS011;27322;49.488;8.480;2022-10-19T20:04:39;12.85;;;7.45;;
41629;SDS011;27322;49.488;8.480;2022-10-19T20:07:25;11.27;;;7.70;;
41629;SDS011;27322;49.488;8.480;2022-10-19T20:10:17;12.55;;;7.80;;
41629;SDS011;27322;49.488;8.480;2022-10-19T20:12:45;10.00;;;7.47;;
41629;SDS011;27322;49.488;8.480;2022-10-19T20:18:34;12.60;;;7.30;;
41629;SDS011;27322;49.488;8.480;2022-10-19T20:23:52;10.20;;;6.97;;
41629;SDS011;27322;49.488;8.480;2022-10-19T20:29:21;10.30;;;6.97;;
41629;SDS011;27322;49.488;8.480;2022-10-19T20:34:51;12.23;;;7.80;;
41629;SDS011;27322;49.488;8.480;2022-10-19T20:37:17;12.48;;;7.50;;
41629;SDS011;27322;49.488;8.480;2022-10-19T20:39:43;12.60;;;8.30;;
41629;SDS011;27322;49.488;8.480;2022-10-19T20:42:43;12.57;;;8.30;;
41629;SDS011;27322;49.488;8.480;2022-10-19T20:45:09;12.43;;;8.35;;
41629;SDS011;27322;49.488;8.480;2022-10-19T20:47:37;14.57;;;7.95;;
41629;SDS011;27322;49.488;8.480;2022-10-19T20:50:03;11.55;;;7.47;;
41629;SDS011;27322;49.488;8.480;2022-10-19T20:52:32;14.73;;;7.63;;
41629;SDS011;27322;49.488;8.480;2022-10-19T20:55:33;11.27;;;8.00;;
41629;SDS011;27322;49.488;8.480;2022-10-19T20:58:16;11.25;;;8.32;;
41629;SDS011;27322;49.488;8.480;2022-10-19T21:00:42;11.52;;;7.82;;
41629;SDS011;27322;49.488;8.480;2022-10-19T21:03:08;11.10;;;8.10;;
41629;SDS011;27322;49.488;8.480;2022-10-19T21:05:36;13.90;;;7.93;;
41629;SDS011;27322;49.488;8.480;2022-10-19T21:08:02;12.85;;;8.60;;
41629;SDS011;27322;49.488;8.480;2022-10-19T21:10:28;12.68;;;8.50;;
41629;SDS011;27322;49.488;8.480;2022-10-19T21:12:53;12.45;;;9.35;;
41629;SDS011;27322;49.488;8.480;2022-10-19T21:15:19;13.68;;;8.52;;
41629;SDS011;27322;49.488;8.480;2022-10-19T21:17:47;12.48;;;8.18;;
41629;SDS011;27322;49.488;8.480;2022-10-19T21:20:13;12.60;;;8.18;;
41629;SDS011;27322;49.488;8.480;2022-10-19T21:22:40;13.00;;;8.75;;
41629;SDS011;27322;49.488;8.480;2022-10-19T21:25:07;12.55;;;8.73;;
41629;SDS011;27322;49.488;8.480;2022-10-19T21:27:34;12.30;;;8.68;;
41629;SDS011;27322;49.488;8.480;2022-10-19T21:29:59;13.02;;;8.95;;
41629;SDS011;27322;49.488;8.480;2022-10-19T21:32:25;13.27;;;9.18;;
41629;SDS011;27322;49.488;8.480;2022-10-19T21:34:53;15.95;;;9.00;;
41629;SDS011;27322;49.488;8.480;2022-10-19T21:37:18;13.27;;;8.52;;
41629;SDS011;27322;49.488;8.480;2022-10-19T21:39:44;13.15;;;8.98;;
41629;SDS011;27322;49.488;8.480;2022-10-19T21:42:09;11.98;;;8.45;;
41629;SDS011;27322;49.488;8.480;2022-10-19T21:44:35;12.43;;;8.57;;
41629;SDS011;27322;49.488;8.480;2022-10-19T21:47:01;11.82;;;8.48;;
41629;SDS011;27322;49.488;8.480;2022-10-19T21:49:26;13.38;;;8.23;;
41629;SDS011;27322;49.488;8.480;2022-10-19T21:51:52;13.75;;;8.68;;
41629;SDS011;27322;49.488;8.480;2022-10-19T21:54:19;14.30;;;9.05;;
41629;SDS011;27322;49.488;8.480;2022-10-19T21:56:48;12.73;;;8.70;;